Time;durP1;ratioP1;P1;durP2;ratioP2;P2;SDS_P1;SDS_P2;PMS_P1;PMS_P2;Temp;Humidity;BMP_temperature;BMP_pressure;BME280_temperature;BME280_humidity;BME280_pressure;Samples;Min_cycle;Max_cycle;Signal;HPM_P1;HPM_P2
2024/01/23 00:00:50;;;;;;;;;93.33;62.00;;;;;-1.63;100.00;100293.66;6302705;20;3653398;-45
2024/01/23 00:03:25;;;;;;;;;94.00;64.33;;;;;-1.60;100.00;100292.78;6303401;20;3661707;-43
2024/01/23 00:05:55;;;;;;;;;89.33;66.00;;;;;-1.86;100.00;100291.06;6305707;20;3661717;-43
2024/01/23 00:08:24;;;;;;;;;88.67;63.67;;;;;-1.60;100.00;100300.69;6302872;20;3656508;-42
2024/01/23 00:10:55;;;;;;;;;90.33;64.00;;;;;-1.67;100.00;100294.53;6302460;20;3661824;-43
2024/01/23 00:13:24;;;;;;;;;96.33;69.67;;;;;-1.81;100.00;100281.41;6269792;20;3656901;-43
2024/01/23 00:15:54;;;;;;;;;81.67;55.33;;;;;-1.79;100.00;100289.28;6302167;20;2893030;-43
2024/01/23 00:18:24;;;;;;;;;96.67;66.00;;;;;-1.80;100.00;100282.28;6305011;20;3666935;-42
2024/01/23 00:20:54;;;;;;;;;88.33;63.00;;;;;-1.30;100.00;100267.22;6305223;20;3655487;-42
2024/01/23 00:23:22;;;;;;;;;82.50;59.50;;;;;-1.07;100.00;100253.94;6304674;20;2881648;-43
2024/01/23 00:25:53;;;;;;;;;87.67;62.33;;;;;-1.62;100.00;100236.63;6272797;20;2903433;-42
2024/01/23 00:28:22;;;;;;;;;73.67;51.33;;;;;-1.55;100.00;100225.19;6303172;20;2881757;-42
2024/01/23 00:30:52;;;;;;;;;95.33;64.00;;;;;-1.49;100.00;100224.28;6303912;20;3658027;-42
2024/01/23 00:33:21;;;;;;;;;78.50;59.00;;;;;-1.60;100.00;100243.63;6303390;20;2874250;-42
2024/01/23 00:35:50;;;;;;;;;83.00;62.33;;;;;-1.53;100.00;100259.41;6273396;20;2877450;-42
2024/01/23 00:38:20;;;;;;;;;85.33;65.33;;;;;-1.49;100.00;100262.03;6303853;20;3645101;-43
2024/01/23 00:40:50;;;;;;;;;91.33;61.33;;;;;-1.96;100.00;100270.03;6303551;20;3651474;-43
2024/01/23 00:43:20;;;;;;;;;78.33;59.33;;;;;-1.04;100.00;100322.44;6306262;20;2882694;-44
2024/01/23 00:45:50;;;;;;;;;93.33;69.00;;;;;-1.02;100.00;100333.88;6303510;20;3650256;-42
2024/01/23 00:48:20;;;;;;;;;90.33;62.00;;;;;-1.85;100.00;100315.63;6304909;20;3649759;-43
2024/01/23 00:50:50;;;;;;;;;95.33;64.67;;;;;-1.88;100.00;100287.56;6301084;20;3664909;-42
2024/01/23 00:53:20;;;;;;;;;81.33;57.67;;;;;-1.78;100.00;100283.16;6304813;20;2894044;-43
2024/01/23 00:55:48;;;;;;;;;80.67;55.67;;;;;-1.79;100.00;100257.69;6304766;20;2879521;-42
2024/01/23 00:58:17;;;;;;;;;80.00;54.00;;;;;-1.77;100.00;100267.34;6301374;20;2885738;-44
2024/01/23 01:00:47;;;;;;;;;80.33;60.33;;;;;-1.79;100.00;100270.84;6269437;20;2885958;-44
2024/01/23 01:03:16;;;;;;;;;78.50;59.00;;;;;-2.02;100.00;100258.63;6303384;20;2880525;-43
2024/01/23 01:05:46;;;;;;;;;89.00;62.33;;;;;-2.00;100.00;100238.47;6272421;20;2896117;-43
2024/01/23 01:08:16;;;;;;;;;88.67;61.33;;;;;-1.55;100.00;100241.00;6303863;20;3654470;-43
2024/01/23 01:10:47;;;;;;;;;91.67;61.67;;;;;-1.67;100.00;100243.66;6308470;20;2883668;-43
2024/01/23 01:13:17;;;;;;;;;92.33;60.33;;;;;-1.76;100.00;100249.81;6310501;20;2895173;-43
2024/01/23 01:15:46;;;;;;;;;85.67;59.33;;;;;-1.63;100.00;100233.13;6310051;20;2895134;-42
2024/01/23 01:18:16;;;;;;;;;92.33;61.00;;;;;-1.56;100.00;100226.91;6307853;20;3654401;-42
2024/01/23 01:20:45;;;;;;;;;83.00;59.00;;;;;-1.70;100.00;100231.38;6310296;20;2878400;-43
2024/01/23 01:23:16;;;;;;;;;82.33;61.00;;;;;-1.39;100.00;100232.13;6277620;20;2879933;-42
2024/01/23 01:25:46;;;;;;;;;82.00;58.67;;;;;-1.38;100.00;100239.16;6310730;20;3634659;-42
2024/01/23 01:28:16;;;;;;;;;81.33;57.00;;;;;-1.18;100.00;100236.44;6306062;20;3640981;-43
2024/01/23 01:30:46;;;;;;;;;85.00;60.67;;;;;-1.61;100.00;100219.94;6308862;20;3651318;-43
2024/01/23 01:33:15;;;;;;;;;70.00;55.00;;;;;-1.49;100.00;100230.41;6307208;20;2870177;-42
2024/01/23 01:35:45;;;;;;;;;89.67;68.00;;;;;-1.74;100.00;100234.88;6277311;20;3659663;-44
2024/01/23 01:38:14;;;;;;;;;81.67;59.33;;;;;-1.73;100.00;100231.38;6309377;20;2893057;-43
2024/01/23 01:40:44;;;;;;;;;88.67;62.00;;;;;-1.09;100.00;100250.44;6309198;20;3649319;-43
2024/01/23 01:43:30;;;;;;;;;84.67;62.33;;;;;-1.24;100.00;100244.34;6309536;20;3648178;-42
2024/01/23 01:46:23;;;;;;;;;90.00;62.33;;;;;-1.89;100.00;100242.84;6306673;20;2900394;-43
2024/01/23 01:48:53;;;;;;;;;74.33;58.00;;;;;-1.51;100.00;100231.31;6305605;20;2885713;-42
2024/01/23 01:51:27;;;;;;;;;83.67;59.33;;;;;-1.46;100.00;100214.59;6304806;20;3648161;-43
2024/01/23 01:53:57;;;;;;;;;85.00;59.33;;;;;-0.99;100.00;100228.44;6304800;20;2903410;-44
2024/01/23 01:56:30;;;;;;;;;85.67;56.33;;;;;-0.88;100.00;100223.97;6305300;20;2904571;-44
2024/01/23 01:58:59;;;;;;;;;96.67;64.33;;;;;-1.48;100.00;100221.63;6305810;20;3658616;-43
2024/01/23 02:01:28;;;;;;;;;73.50;55.50;;;;;-1.62;100.00;100223.44;6302177;20;2500306;-42
2024/01/23 02:03:58;;;;;;;;;90.33;61.67;;;;;-1.80;100.00;100213.84;6276981;20;3649209;-43
2024/01/23 02:06:30;;;;;;;;;81.67;60.67;;;;;-1.25;100.00;100216.25;6308123;20;2896315;-43
2024/01/23 02:09:00;;;;;;;;;98.33;66.33;;;;;-1.31;100.00;100208.41;6303514;20;3663872;-43
2024/01/23 02:11:30;;;;;;;;;79.67;62.33;;;;;-1.37;100.00;100203.16;6307380;20;2876351;-42
2024/01/23 02:13:59;;;;;;;;;85.00;64.00;;;;;-1.21;100.00;100199.56;6305991;20;2898333;-43
2024/01/23 02:16:29;;;;;;;;;84.00;61.67;;;;;-1.26;100.00;100190.81;6306739;20;2885849;-43
2024/01/23 02:18:59;;;;;;;;;82.67;58.33;;;;;-1.12;100.00;100188.09;6306110;20;2896251;-43
2024/01/23 02:21:28;;;;;;;;;86.33;62.67;;;;;-0.79;100.00;100202.81;6307826;20;3649255;-43
2024/01/23 02:23:58;;;;;;;;;87.67;63.33;;;;;-1.45;100.00;100199.69;6306798;20;3656499;-43
2024/01/23 02:26:28;;;;;;;;;80.33;60.00;;;;;-1.50;100.00;100206.72;6306248;20;2892056;-43
2024/01/23 02:28:56;;;;;;;;;85.50;61.50;;;;;-0.88;100.00;100218.69;6304877;20;2887780;-42
2024/01/23 02:31:26;;;;;;;;;80.00;58.00;;;;;-1.33;100.00;100205.75;6275504;20;2888842;-43
2024/01/23 02:33:56;;;;;;;;;85.33;60.33;;;;;-0.75;100.00;100222.13;6305481;20;2897133;-43
2024/01/23 02:36:25;;;;;;;;;88.00;61.67;;;;;-0.67;100.00;100221.16;6306796;20;2891126;-44
2024/01/23 02:38:55;;;;;;;;;79.33;58.00;;;;;-1.15;100.00;100225.88;6308312;20;2889961;-44
2024/01/23 02:41:25;;;;;;;;;85.67;60.33;;;;;-0.75;100.00;100217.72;6304692;20;2890633;-43
2024/01/23 02:43:53;;;;;;;;;83.50;63.50;;;;;-1.05;100.00;100217.91;6306065;20;2886758;-45
2024/01/23 02:46:23;;;;;;;;;91.00;60.00;;;;;-1.44;100.00;100214.63;6277256;20;3667019;-43
2024/01/23 02:48:52;;;;;;;;;75.50;57.00;;;;;-1.38;100.00;100210.19;6306820;20;2865997;-43
2024/01/23 02:51:21;;;;;;;;;82.00;60.50;;;;;-1.52;100.00;100193.56;6273680;20;2886897;-43
2024/01/23 02:53:51;;;;;;;;;82.67;63.33;;;;;-1.61;100.00;100190.97;6274944;20;2885740;-42
2024/01/23 02:56:19;;;;;;;;;78.00;53.00;;;;;-1.84;100.00;100191.94;6309021;20;2887807;-42
2024/01/23 02:58:49;;;;;;;;;78.50;56.50;;;;;-1.83;100.00;100180.53;6274583;20;2871092;-44
2024/01/23 03:01:18;;;;;;;;;91.33;63.67;;;;;-1.83;100.00;100182.28;6274317;20;3655461;-42
2024/01/23 03:03:48;;;;;;;;;75.33;57.67;;;;;-1.78;100.00;100176.13;6304761;20;2876457;-45
2024/01/23 03:06:18;;;;;;;;;96.00;66.67;;;;;-1.59;100.00;100158.50;6308597;20;3663825;-43
2024/01/23 03:08:47;;;;;;;;;98.33;64.00;;;;;-1.38;100.00;100169.81;6306886;20;3663790;-43
2024/01/23 03:11:17;;;;;;;;;79.67;53.67;;;;;-1.00;100.00;100176.59;6307454;20;2884693;-42
2024/01/23 03:13:47;;;;;;;;;86.00;62.67;;;;;-0.94;100.00;100174.81;6305391;20;3646159;-42
2024/01/23 03:16:16;;;;;;;;;79.50;61.00;;;;;-1.03;100.00;100176.63;6306166;20;2889923;-42
2024/01/23 03:18:46;;;;;;;;;84.67;63.00;;;;;-0.92;100.00;100186.22;6274167;20;2904510;-43
2024/01/23 03:21:16;;;;;;;;;91.67;60.00;;;;;-0.77;100.00;100193.13;6306568;20;3656599;-43
2024/01/23 03:23:46;;;;;;;;;91.67;60.00;;;;;-0.90;100.00;100184.41;6305371;20;3657687;-43
2024/01/23 03:26:16;;;;;;;;;83.33;60.33;;;;;-0.86;100.00;100190.56;6304788;20;3640896;-43
2024/01/23 03:28:46;;;;;;;;;91.00;64.00;;;;;-1.09;100.00;100224.97;6307736;20;3661082;-43
2024/01/23 03:31:15;;;;;;;;;92.67;63.33;;;;;-1.15;100.00;100214.47;6302659;20;3650272;-43
2024/01/23 03:33:46;;;;;;;;;92.33;62.00;;;;;-0.99;100.00;100215.25;6303851;20;3662743;-45
2024/01/23 03:36:16;;;;;;;;;83.67;62.00;;;;;-1.05;100.00;100234.63;6302615;20;2895098;-43
2024/01/23 03:38:46;;;;;;;;;51.00;35.00;;;;;-0.80;100.00;100247.63;6305193;20;2875386;-45
2024/01/23 03:41:16;;;;;;;;;90.00;66.33;;;;;-0.96;100.00;100231.03;6272950;20;3659706;-42
2024/01/23 03:43:49;;;;;;;;;88.00;64.67;;;;;-1.02;100.00;100233.72;6304705;20;3661843;-43
2024/01/23 03:46:18;;;;;;;;;85.00;61.67;;;;;-1.04;100.00;100232.84;6303809;20;3652348;-44
2024/01/23 03:48:48;;;;;;;;;94.00;66.33;;;;;-1.15;100.00;100231.16;6305648;20;3646088;-42
2024/01/23 03:51:18;;;;;;;;;88.00;61.00;;;;;-1.00;100.00;100227.56;6301016;20;3655482;-43
2024/01/23 03:53:48;;;;;;;;;90.33;63.67;;;;;-0.96;100.00;100237.19;6300904;20;3656500;-42
2024/01/23 03:56:18;;;;;;;;;91.67;67.00;;;;;-0.83;100.00;100232.72;6304690;20;3652365;-42
2024/01/23 03:58:48;;;;;;;;;86.00;58.00;;;;;-0.88;100.00;100229.22;6304272;20;3655588;-44
2024/01/23 04:01:17;;;;;;;;;79.67;56.00;;;;;-0.92;100.00;100230.16;6300793;20;2892134;-43
2024/01/23 04:03:47;;;;;;;;;86.00;60.67;;;;;-0.74;100.00;100237.94;6303406;20;2888932;-42
2024/01/23 04:06:17;;;;;;;;;85.67;62.67;;;;;-0.60;100.00;100229.06;6301899;20;3652422;-43
2024/01/23 04:08:47;;;;;;;;;88.00;64.33;;;;;-1.03;100.00;100222.28;6305030;20;2894154;-43
2024/01/23 04:11:17;;;;;;;;;94.00;66.67;;;;;-0.91;100.00;100223.97;6304006;20;3663801;-44
2024/01/23 04:13:50;;;;;;;;;81.00;59.00;;;;;-0.60;100.00;100229.06;6298971;20;2892149;-43
2024/01/23 04:16:17;;;;;;;;;84.50;60.00;;;;;-0.70;100.00;100223.84;6300583;20;2554474;-43
2024/01/23 04:18:47;;;;;;;;;88.33;64.67;;;;;-0.95;100.00;100224.88;6273841;20;3660678;-45
2024/01/23 04:21:17;;;;;;;;;85.00;59.00;;;;;-1.02;100.00;100220.56;6305119;20;3646220;-42
2024/01/23 04:23:47;;;;;;;;;83.33;63.00;;;;;-1.57;100.00;100212.03;6305114;20;2895194;-42
2024/01/23 04:26:18;;;;;;;;;91.67;64.67;;;;;-1.46;100.00;100200.56;6305577;20;3669079;-43
2024/01/23 04:28:49;;;;;;;;;90.33;65.67;;;;;-1.44;100.00;100209.34;6304796;20;3667996;-43
2024/01/23 04:31:18;;;;;;;;;85.33;63.00;;;;;-1.68;100.00;100208.56;6303165;20;3648307;-43
2024/01/23 04:33:49;;;;;;;;;88.00;65.33;;;;;-1.52;100.00;100203.25;6303696;20;3650338;-42
2024/01/23 04:36:19;;;;;;;;;91.00;64.00;;;;;-0.89;100.00;100209.91;6302503;20;3664960;-43
2024/01/23 04:38:49;;;;;;;;;94.00;64.67;;;;;-0.90;100.00;100209.91;6305344;20;3654399;-43
2024/01/23 04:41:19;;;;;;;;;93.00;62.67;;;;;-0.62;100.00;100210.59;6304971;20;3659737;-43
2024/01/23 04:43:49;;;;;;;;;90.33;64.67;;;;;-0.75;100.00;100212.44;6306846;20;3647136;-43
2024/01/23 04:46:18;;;;;;;;;85.00;66.00;;;;;-0.97;100.00;100200.31;6309929;20;2879661;-50
2024/01/23 04:48:48;;;;;;;;;91.67;67.00;;;;;-0.69;100.00;100217.66;6310394;20;3660672;-43
2024/01/23 04:51:18;;;;;;;;;96.00;66.00;;;;;-0.85;100.00;100223.06;6308646;20;3651428;-43
2024/01/23 04:53:51;;;;;;;;;99.00;71.33;;;;;-0.63;100.00;100231.69;6307694;20;3639866;-43
2024/01/23 04:56:21;;;;;;;;;103.00;75.67;;;;;-0.65;100.00;100233.50;6309928;20;3663814;-42
2024/01/23 04:58:51;;;;;;;;;115.00;88.67;;;;;-0.63;100.00;100247.50;6274562;20;3697137;-43
2024/01/23 05:01:21;;;;;;;;;99.33;75.00;;;;;-0.84;100.00;100235.34;6275287;20;3659643;-43
2024/01/23 05:03:50;;;;;;;;;97.00;67.67;;;;;-0.76;100.00;100234.44;6309246;20;3660691;-43
2024/01/23 05:06:20;;;;;;;;;92.67;64.33;;;;;-0.56;100.00;100247.47;6310180;20;3661746;-43
2024/01/23 05:08:50;;;;;;;;;97.00;70.00;;;;;-0.55;100.00;100253.63;6310619;20;3667112;-43
2024/01/23 05:11:20;;;;;;;;;99.33;69.67;;;;;-0.76;100.00;100271.34;6309631;20;3658564;-42
2024/01/23 05:13:49;;;;;;;;;92.67;67.67;;;;;-0.98;100.00;100259.16;6308236;20;3654447;-43
2024/01/23 05:16:19;;;;;;;;;89.67;63.00;;;;;-0.81;100.00;100253.81;6308029;20;3658649;-42
2024/01/23 05:18:49;;;;;;;;;90.33;68.33;;;;;-0.64;100.00;100254.56;6307456;20;3650267;-43
2024/01/23 05:21:19;;;;;;;;;89.67;66.00;;;;;-0.62;100.00;100258.06;6308634;20;3655507;-45
2024/01/23 05:23:49;;;;;;;;;89.67;64.67;;;;;-0.78;100.00;100262.56;6309349;20;2894228;-43
2024/01/23 05:26:18;;;;;;;;;89.00;69.00;;;;;-0.80;100.00;100269.59;6308845;20;3619015;-43
2024/01/23 05:28:49;;;;;;;;;92.00;68.00;;;;;-0.75;100.00;100265.19;6307570;20;3652452;-43
2024/01/23 05:31:19;;;;;;;;;94.67;66.67;;;;;-0.55;100.00;100265.06;6308309;20;3666927;-44
2024/01/23 05:33:48;;;;;;;;;95.33;69.67;;;;;-0.61;100.00;100265.06;6273557;20;2897247;-43
2024/01/23 05:36:19;;;;;;;;;99.33;68.67;;;;;-0.86;100.00;100259.09;6308555;20;3655462;-43
2024/01/23 05:38:50;;;;;;;;;95.67;69.67;;;;;-0.50;100.00;100259.72;6310889;20;3662750;-44
2024/01/23 05:41:19;;;;;;;;;99.67;73.33;;;;;-0.55;100.00;100274.72;6309384;20;3672101;-44
2024/01/23 05:43:50;;;;;;;;;101.67;73.67;;;;;-0.70;100.00;100284.47;6274598;20;3674298;-44
2024/01/23 05:46:19;;;;;;;;;101.67;72.67;;;;;-0.62;100.00;100299.38;6306986;20;3674172;-45
2024/01/23 05:48:49;;;;;;;;;102.00;72.33;;;;;-0.46;100.00;100290.47;6308166;20;3665990;-44
2024/01/23 05:51:19;;;;;;;;;100.67;74.00;;;;;-0.27;100.00;100292.09;6306202;20;3668994;-42
2024/01/23 05:53:48;;;;;;;;;108.00;76.00;;;;;-0.27;100.00;100305.28;6306067;20;3673174;-42
2024/01/23 05:56:20;;;;;;;;;99.33;67.33;;;;;-0.46;100.00;100291.34;6272853;20;3660631;-44
2024/01/23 05:58:49;;;;;;;;;100.33;73.33;;;;;-0.37;100.00;100300.97;6309152;20;3675219;-43
2024/01/23 06:01:19;;;;;;;;;96.67;70.00;;;;;-0.60;100.00;100297.63;6270653;20;3661788;-42
2024/01/23 06:03:48;;;;;;;;;85.00;63.00;;;;;-0.39;100.00;100297.47;6307210;20;2880721;-42
2024/01/23 06:06:19;;;;;;;;;90.00;67.67;;;;;-0.77;100.00;100290.66;6277385;20;3661718;-43
2024/01/23 06:08:49;;;;;;;;;96.67;72.33;;;;;-1.14;100.00;100290.84;6309288;20;3634647;-42
2024/01/23 06:11:19;;;;;;;;;91.67;68.33;;;;;-0.58;100.00;100287.91;6308030;20;3644049;-43
2024/01/23 06:13:48;;;;;;;;;98.00;68.00;;;;;-0.51;100.00;100289.63;6303493;20;3686734;-43
2024/01/23 06:16:18;;;;;;;;;97.33;68.33;;;;;-0.54;100.00;100292.28;6274503;20;3661709;-43
2024/01/23 06:18:48;;;;;;;;;88.33;66.00;;;;;-0.21;100.00;100291.19;6308105;20;3643072;-42
2024/01/23 06:21:18;;;;;;;;;90.33;67.00;;;;;-0.29;100.00;100299.16;6307965;20;3656505;-44
2024/01/23 06:23:48;;;;;;;;;106.33;77.67;;;;;-0.77;100.00;100319.66;6306190;20;3675246;-43
2024/01/23 06:26:18;;;;;;;;;102.33;76.33;;;;;-0.75;100.00;100324.94;6274367;20;3664857;-45
2024/01/23 06:28:47;;;;;;;;;104.67;78.33;;;;;-0.97;100.00;100324.19;6275633;20;3671122;-45
2024/01/23 06:31:19;;;;;;;;;95.33;70.67;;;;;-1.15;100.00;100327.75;6308163;20;3648259;-44
2024/01/23 06:33:49;;;;;;;;;117.00;89.67;;;;;-0.67;100.00;100338.97;6307329;20;3697574;-44
2024/01/23 06:36:18;;;;;;;;;123.00;96.67;;;;;-0.81;100.00;100335.53;6276606;20;3702063;-45
2024/01/23 06:38:48;;;;;;;;;100.67;74.67;;;;;-0.65;100.00;100337.19;6273899;20;3674241;-43
2024/01/23 06:41:18;;;;;;;;;99.67;69.00;;;;;-0.49;100.00;100340.63;6307399;20;3654521;-44
2024/01/23 06:43:47;;;;;;;;;98.67;72.00;;;;;-0.46;100.00;100344.09;6304745;20;3674208;-43
2024/01/23 06:46:17;;;;;;;;;104.33;75.33;;;;;-0.90;100.00;100342.56;6275679;20;3659616;-44
2024/01/23 06:48:47;;;;;;;;;105.67;78.33;;;;;-0.78;100.00;100336.38;6308197;20;3674608;-43
2024/01/23 06:51:16;;;;;;;;;108.00;73.67;;;;;-0.86;100.00;100342.59;6308077;20;3675255;-43
2024/01/23 06:53:46;;;;;;;;;105.33;75.00;;;;;-0.36;100.00;100349.34;6272143;20;3681533;-43
2024/01/23 06:56:16;;;;;;;;;97.67;73.33;;;;;-0.51;100.00;100350.28;6274936;20;3656563;-43
2024/01/23 06:58:45;;;;;;;;;97.33;72.67;;;;;-0.46;100.00;100351.16;6307402;20;3651331;-44
2024/01/23 07:01:15;;;;;;;;;101.00;74.33;;;;;-0.53;100.00;100359.97;6304888;20;3676418;-43
2024/01/23 07:03:45;;;;;;;;;108.33;79.67;;;;;-0.26;100.00;100366.88;6272435;20;3674242;-43
2024/01/23 07:06:15;;;;;;;;;113.33;88.00;;;;;-0.16;100.00;100367.66;6272846;20;3705477;-43
2024/01/23 07:08:45;;;;;;;;;101.67;75.33;;;;;0.60;100.00;100379.34;6273671;20;3667012;-43
2024/01/23 07:11:14;;;;;;;;;97.33;71.33;;;;;1.23;100.00;100379.53;6306968;20;3669018;-43
2024/01/23 07:13:44;;;;;;;;;102.00;74.00;;;;;1.26;100.00;100383.91;6306486;20;3673227;-45
2024/01/23 07:16:14;;;;;;;;;96.67;70.00;;;;;1.44;100.00;100394.25;6271761;20;3662791;-43
2024/01/23 07:18:44;;;;;;;;;97.00;69.67;;;;;1.05;100.00;100403.53;6274755;20;3641951;-43
2024/01/23 07:21:13;;;;;;;;;95.67;71.00;;;;;1.12;100.00;100407.00;6303236;20;3657570;-43
2024/01/23 07:23:43;;;;;;;;;99.00;76.33;;;;;1.56;100.00;100410.88;6305906;20;3662834;-43
2024/01/23 07:26:13;;;;;;;;;97.00;72.67;;;;;1.39;100.00;100411.94;6307879;20;3645076;-44
2024/01/23 07:28:43;;;;;;;;;103.67;79.00;;;;;1.47;100.00;100419.78;6307785;20;3681525;-43
2024/01/23 07:31:30;;;;;;;;;96.67;72.00;;;;;0.71;100.00;100426.81;6275237;20;3659621;-42
2024/01/23 07:34:00;;;;;;;;;102.67;73.33;;;;;0.27;100.00;100425.44;6271309;20;3680448;-42
2024/01/23 07:36:30;;;;;;;;;106.00;73.33;;;;;0.36;100.00;100420.06;6270595;20;3678365;-42
2024/01/23 07:39:00;;;;;;;;;99.67;73.67;;;;;0.46;100.00;100426.16;6274148;20;3659680;-42
2024/01/23 07:41:30;;;;;;;;;102.00;79.33;;;;;0.68;100.00;100442.69;6307352;20;3688780;-42
2024/01/23 07:44:00;;;;;;;;;111.00;91.00;;;;;0.28;100.00;100449.19;6271467;20;3699167;-42
2024/01/23 07:46:30;;;;;;;;;105.33;77.33;;;;;0.27;100.00;100441.28;6272597;20;3673139;-42
2024/01/23 07:48:59;;;;;;;;;111.33;86.33;;;;;0.65;100.00;100439.19;6306468;20;3695049;-43
2024/01/23 07:51:48;;;;;;;;;105.67;82.33;;;;;0.28;100.00;100437.75;6273087;20;3679378;-42
2024/01/23 07:54:18;;;;;;;;;98.67;74.33;;;;;0.22;100.00;100444.81;6274445;20;3656611;-44
2024/01/23 07:56:50;;;;;;;;;106.33;83.33;;;;;0.41;100.00;100450.84;6301888;20;3693047;-43
2024/01/23 07:59:20;;;;;;;;;105.67;80.33;;;;;0.47;100.00;100447.25;6275094;20;3685713;-43
2024/01/23 08:01:49;;;;;;;;;104.67;81.33;;;;;0.74;100.00;100445.28;6273656;20;3693973;-45
2024/01/23 08:04:19;;;;;;;;;111.33;85.67;;;;;0.69;100.00;100439.19;6273584;20;3701306;-44
2024/01/23 08:06:49;;;;;;;;;89.67;71.00;;;;;0.72;100.00;100439.16;6270617;20;2887859;-42
2024/01/23 08:09:19;;;;;;;;;97.33;70.33;;;;;0.75;100.00;100439.13;6306856;20;3659648;-41
2024/01/23 08:11:49;;;;;;;;;104.00;73.00;;;;;0.72;100.00;100434.72;6304330;20;3684610;-41
2024/01/23 08:14:19;;;;;;;;;118.33;98.33;;;;;0.98;100.00;100437.13;6269273;20;3692990;-41
2024/01/23 08:16:48;;;;;;;;;103.33;75.33;;;;;0.73;100.00;100436.47;6274089;20;3672120;-41
2024/01/23 08:19:18;;;;;;;;;101.67;77.33;;;;;0.84;100.00;100433.72;6276959;20;3678411;-41
2024/01/23 08:21:49;;;;;;;;;114.00;90.33;;;;;0.85;100.00;100436.38;6274353;20;3694093;-41
2024/01/23 08:24:19;;;;;;;;;107.00;79.00;;;;;1.05;100.00;100428.25;6274800;20;3689844;-41
2024/01/23 08:26:52;;;;;;;;;99.00;68.00;;;;;1.13;100.00;100432.53;6278497;20;3648272;-41
2024/01/23 08:29:22;;;;;;;;;109.00;80.67;;;;;1.03;100.00;100435.31;6308517;20;3695093;-41
2024/01/23 08:31:52;;;;;;;;;100.00;79.33;;;;;0.79;100.00;100428.50;6278219;20;3692995;-42
2024/01/23 08:34:22;;;;;;;;;114.67;92.00;;;;;0.93;100.00;100427.50;6275603;20;3697113;-41
2024/01/23 08:36:52;;;;;;;;;108.00;84.50;;;;;1.38;100.00;100441.09;6275979;20;3633575;-41
2024/01/23 08:39:20;;;;;;;;;154.00;120.00;;;;;1.27;100.00;100449.16;6305435;20;1957801;-41
2024/01/23 08:41:52;;;;;;;;;118.67;91.00;;;;;0.96;100.00;100457.41;6278421;20;3697128;-41
2024/01/23 08:44:23;;;;;;;;;108.00;78.33;;;;;1.44;100.00;100462.19;6277801;20;3693004;-40
2024/01/23 08:46:53;;;;;;;;;111.67;88.67;;;;;1.33;100.00;100469.38;6279732;20;3699208;-41
2024/01/23 08:49:22;;;;;;;;;114.67;91.00;;;;;1.21;100.00;100467.72;6279549;20;3687832;-40
2024/01/23 08:51:52;;;;;;;;;107.67;88.00;;;;;1.39;100.00;100470.16;6279107;20;3704511;-41
2024/01/23 08:54:25;;;;;;;;;120.67;86.33;;;;;0.96;100.00;100481.19;6278696;20;3702473;-41
2024/01/23 08:56:56;;;;;;;;;105.67;71.00;;;;;1.00;100.00;100482.94;6278885;20;3688896;-41
2024/01/23 08:59:28;;;;;;;;;106.33;73.67;;;;;0.83;100.00;100463.69;6279902;20;3690865;-40
2024/01/23 09:01:58;;;;;;;;;96.67;71.67;;;;;0.84;100.00;100483.94;6276505;20;3657575;-41
2024/01/23 09:04:27;;;;;;;;;104.33;82.00;;;;;0.72;100.00;100481.44;6277226;20;3691943;-41
2024/01/23 09:06:57;;;;;;;;;100.00;74.67;;;;;0.63;100.00;100487.66;6281497;20;3663818;-41
2024/01/23 09:09:27;;;;;;;;;105.67;82.00;;;;;0.80;100.00;100495.47;6281819;20;3681563;-41
2024/01/23 09:11:57;;;;;;;;;106.67;78.67;;;;;0.57;100.00;100499.16;6278124;20;3688944;-43
2024/01/23 09:14:27;;;;;;;;;125.75;90.50;;;;;0.99;100.00;100497.03;6279906;20;3709731;-41
2024/01/23 09:16:57;;;;;;;;;108.00;86.67;;;;;0.62;100.00;100501.75;6275664;20;3685694;-41
2024/01/23 09:19:28;;;;;;;;;106.33;83.33;;;;;0.74;100.00;100492.84;6279633;20;3695078;-41
2024/01/23 09:21:58;;;;;;;;;102.67;76.33;;;;;0.86;100.00;100500.69;6279503;20;3691054;-41
2024/01/23 09:24:28;;;;;;;;;111.00;87.67;;;;;0.99;100.00;100501.44;6278562;20;3707579;-42
2024/01/23 09:27:01;;;;;;;;;103.67;83.00;;;;;1.01;100.00;100495.25;6278792;20;3680499;-41
2024/01/23 09:29:31;;;;;;;;;98.00;68.33;;;;;0.93;100.00;100491.81;6279534;20;3665890;-41
2024/01/23 09:32:00;;;;;;;;;109.00;85.00;;;;;1.35;100.00;100483.47;6309906;20;3690872;-41
2024/01/23 09:34:30;;;;;;;;;102.67;82.33;;;;;1.42;100.00;100475.44;6278593;20;3668391;-41
2024/01/23 09:37:02;;;;;;;;;108.25;83.50;;;;;1.66;100.00;100473.38;6276659;20;3707559;-42
2024/01/23 09:39:32;;;;;;;;;103.33;82.33;;;;;2.08;100.00;100484.28;6278354;20;3696097;-41
2024/01/23 09:42:02;;;;;;;;;99.00;74.00;;;;;1.71;100.00;100482.13;6277492;20;3665894;-42
2024/01/23 09:44:32;;;;;;;;;99.33;80.67;;;;;1.97;100.00;100480.03;6288576;20;3671080;-42
2024/01/23 09:47:03;;;;;;;;;106.33;81.00;;;;;2.04;100.00;100478.16;6276073;20;3701283;-42
2024/01/23 09:49:36;;;;;;;;;99.00;78.33;;;;;2.57;100.00;100471.16;6279848;20;3668987;-42
2024/01/23 09:52:09;;;;;;;;;100.00;80.33;;;;;2.65;100.00;100468.41;6276358;20;3674258;-42
2024/01/23 09:54:38;;;;;;;;;98.67;80.67;;;;;2.39;100.00;100466.16;6272466;20;3670190;-43
2024/01/23 09:57:08;;;;;;;;;90.67;67.33;;;;;2.22;100.00;100463.78;6274084;20;3648249;-42
2024/01/23 09:59:39;;;;;;;;;101.67;82.67;;;;;2.49;100.00;100461.59;6308404;20;3694171;-44
2024/01/23 10:02:10;;;;;;;;;101.67;76.67;;;;;2.44;100.00;100466.09;6275981;20;3692990;-44
2024/01/23 10:04:41;;;;;;;;;100.33;85.33;;;;;1.96;100.00;100456.22;6277876;20;3694046;-43
2024/01/23 10:07:11;;;;;;;;;93.67;81.33;;;;;2.49;100.00;100472.22;6277596;20;3643079;-43
2024/01/23 10:09:48;;;;;;;;;100.33;81.67;;;;;3.17;100.00;100488.72;6311074;20;3676310;-44
2024/01/23 10:12:19;;;;;;;;;100.25;82.75;;;;;3.03;100.00;100493.41;6276569;20;3705768;-43
2024/01/23 10:14:50;;;;;;;;;100.67;81.33;;;;;2.98;100.00;100487.31;6308598;20;3691951;-42
2024/01/23 10:17:21;;;;;;;;;108.25;85.25;;;;;2.50;100.00;100484.53;6274287;20;3710244;-42
2024/01/23 10:19:51;;;;;;;;;105.00;85.00;;;;;2.76;100.00;100477.03;6308324;20;3686744;-42
2024/01/23 10:22:21;;;;;;;;;99.67;83.00;;;;;3.50;100.00;100470.38;6275333;20;3685715;-42
2024/01/23 10:24:52;;;;;;;;;100.50;81.00;;;;;3.51;99.11;100477.47;6276781;20;3707636;-42
2024/01/23 10:27:22;;;;;;;;;113.33;86.00;;;;;3.23;100.00;100475.31;6276636;20;3696400;-42
2024/01/23 10:29:52;;;;;;;;;115.33;93.67;;;;;2.89;100.00;100475.06;6278558;20;3709637;-42
2024/01/23 10:32:29;;;;;;;;;100.67;78.67;;;;;3.15;100.00;100487.84;6276614;20;3692024;-43
2024/01/23 10:34:59;;;;;;;;;115.33;92.00;;;;;2.73;100.00;100476.22;6272045;20;3676354;-41
2024/01/23 10:37:30;;;;;;;;;112.75;97.75;;;;;2.73;100.00;100469.13;6277281;20;3687778;-42
2024/01/23 10:40:03;;;;;;;;;100.33;73.67;;;;;2.55;100.00;100461.50;6273392;20;3695065;-42
2024/01/23 10:42:33;;;;;;;;;107.67;88.00;;;;;2.76;100.00;100474.38;6274154;20;3693055;-41
2024/01/23 10:45:05;;;;;;;;;111.67;90.67;;;;;2.68;100.00;100488.69;6274708;20;3699229;-42
2024/01/23 10:47:35;;;;;;;;;112.00;85.33;;;;;2.87;100.00;100479.53;6275973;20;3704407;-43
2024/01/23 10:50:06;;;;;;;;;112.33;91.67;;;;;2.75;100.00;100475.31;6277110;20;3700261;-44
2024/01/23 10:52:40;;;;;;;;;99.67;76.00;;;;;2.42;100.00;100472.31;6274813;20;3682576;-42
2024/01/23 10:55:11;;;;;;;;;102.00;85.67;;;;;2.04;100.00;100467.56;6274329;20;3698188;-42
2024/01/23 10:57:49;;;;;;;;;108.00;84.33;;;;;2.13;100.00;100471.84;6273663;20;3687863;-42
2024/01/23 11:00:20;;;;;;;;;92.33;74.33;;;;;2.51;100.00;100471.28;6275044;20;2889006;-41